createdAt,value
2022-12-23T00:01:27.310Z,4.33
2022-12-23T00:06:29.556Z,4.33
2022-12-23T00:11:31.806Z,5.40
2022-12-23T00:16:37.154Z,5.57
2022-12-23T00:21:39.449Z,5.30
2022-12-23T00:26:41.599Z,5.73
2022-12-23T00:31:43.944Z,6.17
2022-12-23T00:36:46.179Z,6.30
2022-12-23T00:42:06.861Z,5.87
2022-12-23T00:47:29.058Z,6.37
2022-12-23T00:52:31.952Z,6.53
2022-12-23T00:57:34.188Z,5.83
2022-12-23T01:02:54.938Z,6.50
2022-12-23T01:07:57.237Z,7.37
2022-12-23T01:12:59.452Z,7.13
2022-12-23T01:18:01.666Z,7.20
2022-12-23T01:23:03.933Z,6.73
2022-12-23T01:28:06.122Z,7.10
2022-12-23T01:33:08.340Z,7.43
2022-12-23T01:38:10.593Z,7.70
2022-12-23T01:43:17.797Z,7.33
2022-12-23T01:48:25.622Z,9.00
2022-12-23T01:53:27.788Z,8.53
2022-12-23T01:58:37.335Z,8.17
2022-12-23T02:03:42.530Z,10.02
2022-12-23T02:09:03.495Z,8.10
2022-12-23T02:14:32.498Z,8.63
2022-12-23T02:19:57.817Z,9.63
2022-12-23T02:25:18.827Z,8.60
2022-12-23T02:31:09.851Z,7.70
2022-12-23T02:41:19.920Z,7.87
2022-12-23T02:46:28.090Z,9.07
2022-12-23T02:51:34.263Z,8.33
2022-12-23T02:56:37.845Z,10.03
2022-12-23T03:01:40.383Z,9.03
2022-12-23T03:06:45.486Z,8.83
2022-12-23T03:11:53.930Z,10.57
2022-12-23T03:17:08.396Z,8.70
2022-12-23T03:22:22.568Z,10.13
2022-12-23T03:27:31.892Z,11.10
2022-12-23T03:32:38.347Z,9.82
2022-12-23T03:37:44.171Z,11.17
2022-12-23T03:42:50.527Z,10.63
2022-12-23T03:47:56.916Z,11.80
2022-12-23T03:53:09.898Z,9.70
2022-12-23T03:58:25.643Z,12.03
2022-12-23T04:03:37.250Z,12.63
2022-12-23T04:08:40.383Z,11.70
2022-12-23T04:13:42.748Z,11.90
2022-12-23T04:18:45.011Z,11.30
2022-12-23T04:23:47.240Z,10.77
2022-12-23T04:28:49.414Z,10.90
2022-12-23T04:33:51.642Z,9.27
2022-12-23T04:38:53.824Z,10.53
2022-12-23T04:43:56.076Z,11.10
2022-12-23T04:48:58.465Z,10.03
2022-12-23T04:54:00.742Z,10.43
2022-12-23T04:59:04.494Z,11.50
2022-12-23T05:04:06.675Z,10.43
2022-12-23T05:09:09.267Z,8.90
2022-12-23T05:14:11.865Z,10.70
2022-12-23T05:19:14.607Z,10.27
2022-12-23T05:24:16.829Z,10.00
2022-12-23T05:29:19.052Z,9.00
2022-12-23T05:34:21.611Z,10.23
2022-12-23T05:39:23.942Z,9.57
2022-12-23T05:44:26.173Z,10.10
2022-12-23T05:49:28.485Z,9.30
2022-12-23T05:54:30.775Z,10.57
2022-12-23T05:59:33.022Z,9.47
2022-12-23T06:04:35.253Z,9.13
2022-12-23T06:09:37.473Z,9.50
2022-12-23T06:14:39.765Z,10.77
2022-12-23T06:19:42.024Z,8.77
2022-12-23T06:24:45.026Z,9.23
2022-12-23T06:29:49.247Z,8.90
2022-12-23T06:34:53.556Z,8.63
2022-12-23T06:39:56.070Z,9.27
2022-12-23T06:44:58.387Z,9.03
2022-12-23T06:50:00.781Z,9.37
2022-12-23T06:55:03.187Z,8.60
2022-12-23T07:00:06.431Z,8.83
2022-12-23T07:05:09.283Z,7.97
2022-12-23T07:10:11.553Z,8.27
2022-12-23T07:15:15.141Z,8.37
2022-12-23T07:20:17.414Z,7.97
2022-12-23T07:25:19.598Z,8.63
2022-12-23T07:30:22.656Z,8.67
2022-12-23T07:35:24.896Z,8.60
2022-12-23T07:40:27.452Z,8.77
2022-12-23T07:45:30.548Z,7.90
2022-12-23T07:50:33.663Z,8.90
2022-12-23T07:55:36.369Z,8.40
2022-12-23T08:00:38.640Z,9.43
2022-12-23T08:05:40.889Z,10.40
2022-12-23T08:10:48.277Z,8.60
2022-12-23T08:15:57.883Z,9.97
2022-12-23T08:21:06.020Z,9.23
2022-12-23T08:26:10.102Z,9.60
2022-12-23T08:31:21.041Z,9.53
2022-12-23T08:36:26.315Z,10.40
2022-12-23T08:41:31.656Z,8.87
2022-12-23T08:46:34.728Z,8.23
2022-12-23T08:51:38.045Z,9.60
2022-12-23T08:56:41.683Z,9.47
2022-12-23T09:01:44.101Z,8.67
2022-12-23T09:06:46.710Z,9.57
2022-12-23T09:11:48.908Z,8.30
2022-12-23T09:16:52.697Z,8.47
2022-12-23T09:21:57.964Z,8.00
2022-12-23T09:27:00.196Z,9.30
2022-12-23T09:32:02.419Z,9.07
2022-12-23T09:37:04.712Z,8.50
2022-12-23T09:42:14.901Z,8.37
2022-12-23T09:47:20.141Z,8.77
2022-12-23T09:52:31.568Z,7.67
2022-12-23T09:57:51.688Z,8.03
2022-12-23T10:03:12.319Z,9.20
2022-12-23T10:08:29.447Z,8.73
2022-12-23T10:13:54.155Z,8.97
2022-12-23T10:19:03.780Z,8.17
2022-12-23T10:29:21.430Z,9.57
2022-12-23T10:34:36.624Z,7.50
2022-12-23T10:40:01.540Z,7.60
2022-12-23T10:45:10.889Z,8.77
2022-12-23T10:50:39.559Z,8.60
2022-12-23T10:55:41.930Z,7.40
2022-12-23T11:00:53.945Z,7.80
2022-12-23T11:05:57.855Z,8.20
2022-12-23T11:11:01.541Z,8.10
2022-12-23T11:16:20.116Z,7.73
2022-12-23T11:21:22.436Z,6.77
2022-12-23T11:26:25.275Z,8.23
2022-12-23T11:31:29.486Z,8.40
2022-12-23T11:36:34.777Z,7.53
2022-12-23T11:41:40.839Z,6.73
2022-12-23T11:46:43.558Z,6.90
2022-12-23T11:51:48.587Z,7.67
2022-12-23T11:56:52.948Z,7.60
2022-12-23T12:01:58.072Z,6.67
2022-12-23T12:07:01.364Z,7.63
2022-12-23T12:12:12.388Z,7.43
2022-12-23T12:17:17.829Z,7.70
2022-12-23T12:22:44.089Z,6.90
2022-12-23T12:27:52.888Z,7.17
2022-12-23T12:33:39.012Z,6.87
2022-12-23T12:38:41.334Z,7.93
2022-12-23T12:44:04.515Z,6.20
2022-12-23T12:49:29.521Z,6.50
2022-12-23T12:54:42.573Z,7.30
2022-12-23T12:59:45.742Z,6.70
2022-12-23T13:05:13.102Z,7.30
2022-12-23T13:10:30.029Z,7.20
2022-12-23T13:15:33.588Z,6.30
2022-12-23T13:20:42.472Z,6.80
2022-12-23T13:25:49.700Z,5.97
2022-12-23T13:31:21.867Z,7.07
2022-12-23T13:36:36.205Z,7.10
2022-12-23T13:41:48.368Z,6.57
2022-12-23T13:47:05.551Z,6.60
2022-12-23T13:52:32.613Z,6.57
2022-12-23T13:57:53.594Z,6.13
2022-12-23T14:03:00.250Z,6.27
2022-12-23T14:08:11.968Z,6.03
2022-12-23T14:13:16.091Z,5.93
2022-12-23T14:18:28.470Z,4.70
2022-12-23T14:24:08.209Z,5.37
2022-12-23T14:29:23.505Z,5.17
2022-12-23T14:34:31.773Z,4.93
2022-12-23T14:39:34.437Z,3.90
2022-12-23T14:44:37.098Z,3.93
2022-12-23T14:49:43.249Z,4.23
2022-12-23T14:55:06.050Z,4.73
2022-12-23T15:00:10.590Z,4.47
2022-12-23T15:05:13.119Z,4.00
2022-12-23T15:10:22.259Z,3.20
2022-12-23T15:15:30.204Z,3.75
2022-12-23T15:20:33.295Z,3.73
2022-12-23T15:25:41.980Z,3.10
2022-12-23T15:30:50.282Z,3.40
2022-12-23T15:35:52.908Z,3.53
2022-12-23T15:41:06.983Z,4.10
2022-12-23T15:46:15.500Z,3.17
2022-12-23T15:51:57.716Z,3.23
2022-12-23T15:56:52.122Z,3.30
2022-12-23T16:01:55.190Z,3.63
2022-12-23T16:07:03.695Z,3.67
2022-12-23T16:12:24.718Z,4.53
2022-12-23T16:17:37.094Z,3.93
2022-12-23T16:22:40.030Z,4.17
2022-12-23T16:28:09.440Z,3.97
2022-12-23T16:33:42.750Z,4.00
2022-12-23T16:38:45.612Z,4.30
2022-12-23T16:43:52.404Z,4.50
2022-12-23T16:49:06.706Z,5.50
2022-12-23T16:54:13.999Z,5.03
2022-12-23T16:59:17.093Z,5.20
2022-12-23T17:04:20.777Z,5.93
2022-12-23T17:09:23.057Z,6.23
2022-12-23T17:14:25.923Z,5.87
2022-12-23T17:19:29.232Z,5.80
2022-12-23T17:24:32.096Z,5.43
2022-12-23T17:29:34.402Z,5.80
2022-12-23T17:34:36.730Z,5.70
2022-12-23T17:39:38.973Z,5.97
2022-12-23T17:49:58.845Z,5.23
2022-12-23T17:55:01.892Z,5.60
2022-12-23T18:00:05.428Z,6.00
2022-12-23T18:05:32.609Z,5.38
2022-12-23T18:10:37.652Z,5.57
2022-12-23T18:15:42.978Z,5.40
2022-12-23T18:20:47.557Z,4.93
2022-12-23T18:25:53.001Z,5.57
2022-12-23T18:30:59.484Z,6.13
2022-12-23T18:36:01.808Z,5.97
2022-12-23T18:41:04.119Z,5.30
2022-12-23T18:46:06.558Z,6.30
2022-12-23T18:51:14.576Z,6.07
2022-12-23T18:56:21.379Z,5.30
2022-12-23T19:01:23.838Z,4.70
2022-12-23T19:06:27.034Z,4.67
2022-12-23T19:11:29.253Z,4.60
2022-12-23T19:16:35.626Z,4.37
2022-12-23T19:21:38.030Z,4.43
2022-12-23T19:26:42.710Z,4.97
2022-12-23T19:31:45.018Z,4.50
2022-12-23T19:36:47.454Z,4.63
2022-12-23T19:41:50.931Z,3.93
2022-12-23T19:46:53.295Z,4.03
2022-12-23T19:51:55.562Z,4.10
2022-12-23T19:56:57.892Z,4.50
2022-12-23T20:02:00.289Z,4.40
2022-12-23T20:07:02.720Z,4.07
2022-12-23T20:12:05.291Z,4.67
2022-12-23T20:17:08.772Z,4.07
2022-12-23T20:22:11.365Z,4.47
2022-12-23T20:27:15.944Z,4.73
2022-12-23T20:32:18.653Z,5.87
2022-12-23T20:37:23.652Z,5.17
2022-12-23T20:42:27.845Z,4.60
2022-12-23T20:47:30.130Z,4.80
2022-12-23T20:52:32.584Z,4.50
2022-12-23T20:57:36.112Z,5.23
2022-12-23T21:02:38.370Z,5.40
2022-12-23T21:07:40.670Z,5.57
2022-12-23T21:12:43.147Z,4.70
2022-12-23T21:17:45.420Z,4.50
2022-12-23T21:22:48.546Z,4.90
2022-12-23T21:27:51.192Z,4.17
2022-12-23T21:32:53.509Z,4.20
2022-12-23T21:37:55.800Z,4.77
2022-12-23T21:42:58.059Z,4.73
2022-12-23T21:48:00.373Z,4.83
2022-12-23T21:53:02.592Z,4.97
2022-12-23T21:58:04.820Z,6.97
2022-12-23T22:03:07.089Z,10.83
2022-12-23T22:08:09.350Z,14.03
2022-12-23T22:13:12.058Z,11.70
2022-12-23T22:18:14.282Z,10.13
2022-12-23T22:23:16.479Z,8.37
2022-12-23T22:28:18.652Z,8.73
2022-12-23T22:33:21.424Z,10.70
2022-12-23T22:38:23.677Z,9.50
2022-12-23T22:43:25.958Z,9.87
2022-12-23T22:48:29.426Z,8.83
2022-12-23T22:53:32.314Z,8.40
2022-12-23T22:58:34.832Z,6.63
2022-12-23T23:03:37.196Z,6.67
2022-12-23T23:08:39.459Z,4.77
2022-12-23T23:13:41.658Z,4.10
2022-12-23T23:18:43.896Z,3.80
2022-12-23T23:23:46.215Z,3.33
2022-12-23T23:28:48.615Z,3.83
2022-12-23T23:33:50.839Z,4.20
2022-12-23T23:38:53.069Z,4.30
2022-12-23T23:43:55.340Z,4.63
2022-12-23T23:48:57.873Z,4.83
2022-12-23T23:54:00.170Z,4.63
2022-12-23T23:59:02.371Z,3.63
